Terminal Aerodrome Forecast
Issued by NWS

Home | Current Version | Previous Version | Text Only | Print | Product List | Glossary On
Versions: 1 2 3 4 5 6 7 8 9 10 11 12 13 14 15 16 17 18 19 20 21 22 23 24 25 26 27 28 29 30
000
FTUS43 KMKX 030520
TAFENW
TAF
KENW 030520Z 0306/0406 VRB03KT P6SM SKC
     FM031500 27008KT P6SM FEW050 FEW250
     FM031800 25010KT P6SM SCT060 SCT150
     FM032100 24012G22KT P6SM SCT060 BKN100
     FM040000 26011KT P6SM VCSH BKN060
     FM040300 26010KT P6SM SHRA VCTS SCT040 BKN060CB=

USA.gov is the U.S. government's official web portal to all federal, state and local government web resources and services.